map of BHQ home
BHQ - Airport
Location
City:  Broken Hill, New South Wales, Australia
ICAO:YBHI
IATA:BHQ

Details
Type:Airport (Aerodrome, Airfield)
Use:Public/Civil
Latitude:3200'05"S (-32.001388)
Longitude:14128'18"E (141.471667)
Datum:WGS 1984
Elevation:958 ft (292 m)
Variation:8.43E (WMM2015 magnetic declination)
-0.02 annual change
Runways:2
Longest:8251 × 98 ft (2515 × 30 m), paved

Time
Time Zone:UTC+9:30 (DST+10:30)
Local Time:

Weather
METAR:YBHI 161600Z AUTO 16008KT 9999 // NCD 21/14 Q1009

Related Locations
Nearby:
Farthest:FLW: 11775 mi / 18949 km
Flores Island [Santa Cruz], 20, PT

Find:

   beyond  
but within

Other Information
Maps:
NOTAMs:
Links:
Sources:

  
  • flag of Australia
  • flag of New South Wales
  

Sectional Chart

Flight Planning
at skyvector.com

Satellite Image

Google Maps Satellite view

 

Copyright © 2004-2018 Karl L. Swartz. All rights reserved.
The Great Circle Mapper name and logo are trademarks of the Great Circle Mapper.
All other trademarks mentioned herein belong to their respective owners.
Please see credits for attibutions and further copyright information.

  Follow gcmap on Facebook Follow gcmap on Twitter Follow gcmap on Google+ GCmap on LinkedIn

hCard Microformat

Geo Microformat